This is the latest recevied weather packets stored in our database for station/object W0CHP-13. If no packets are shown the sender has not sent any weather packets the latest 1 day(s).
| Time | Temp. | Humidity | Pressure | Rain* | Wind** | Luminosity | Snow |
|---|---|---|---|---|---|---|---|
| 1778080995 | 10.56° C | 36% | 1014.2 hPa | 0 mm | - | 251 W/m² | - |
| 1778080397 | 11.11° C | 35% | 1014.4 hPa | 0 mm | - | 548 W/m² | - |
| 1778076798 | 7.78° C | 42% | 1014.8 hPa | 0 mm | - | 178 W/m² | - |
| 1778076196 | 7.78° C | 43% | 1014.8 hPa | 0 mm | - | 206 W/m² | - |
| 1778075598 | 7.78° C | 43% | 1014.4 hPa | 0 mm | - | 189 W/m² | - |
| 1778074398 | 8.33° C | 44% | 1014.3 hPa | 0 mm | - | 192 W/m² | - |
| 1778073796 | 8.33° C | 46% | 1014.3 hPa | 0 mm | - | 172 W/m² | - |
| 1778072597 | 6.67° C | 49% | 1014.1 hPa | 0 mm | - | 151 W/m² | - |
| 1778071995 | 6.11° C | 51% | 1014.1 hPa | 0 mm | - | 115 W/m² | - |
| 1778071397 | 5.56° C | 51% | 1013.7 hPa | 0 mm | - | 90 W/m² | - |
| 1778068396 | 3.33° C | 56% | 1013.4 hPa | 0 mm | - | 25 W/m² | - |
| 1778067798 | 3.33° C | 56% | 1013.4 hPa | 0 mm | - | 22 W/m² | - |
| 1778067196 | 3.33° C | 56% | 1013.4 hPa | 0 mm | - | 18 W/m² | - |
| 1778065997 | 3.33° C | 55% | 1013 hPa | 0 mm | - | 10 W/m² | - |
| 1778064797 | 3.89° C | 54% | 1012.9 hPa | 0 mm | - | 3 W/m² | - |
| 1778064195 | 3.89° C | 54% | 1012.7 hPa | 0 mm | - | 1 W/m² | - |
| 1778061796 | 4.44° C | 53% | 1012.5 hPa | 0 mm | - | 0 W/m² | - |
| 1778061198 | 4.44° C | 53% | 1012.5 hPa | 0 mm | - | 0 W/m² | - |
| 1778060596 | 4.44° C | 53% | 1012.3 hPa | 0 mm | - | 0 W/m² | - |
| 1778059998 | 4.44° C | 53% | 1012.1 hPa | 0 mm | - | 0 W/m² | - |
| 1778057595 | 5° C | 51% | 1012 hPa | 0 mm | - | 0 W/m² | - |
| 1778056997 | 5° C | 50% | 1012 hPa | 0 mm | - | 0 W/m² | - |
| 1778055797 | 5.56° C | 49% | 1011.6 hPa | 0 mm | - | 0 W/m² | - |
| 1778054598 | 5.56° C | 50% | 1011.6 hPa | 0 mm | - | 0 W/m² | - |
| 1778053996 | 6.11° C | 49% | 1011.6 hPa | 0 mm | - | 0 W/m² | - |
* Rain latest hour (hover to see other rain measurements)
** Current wind speed in m/s (hover to see current wind gust speed)